Isle of Canna, United Kingdom
Current Conditions -  °F | °C
As of 8:50 AM on Thursday 23 Oct 2014 (Local Time) from EGPU Reporting Station
Light Rain Light Rain  
Wind Chill: 12°   Ceiling: 600
Heat Index: 12°   Visibility: 3mi
Dew Point: 12°   Wind: 12mph
Humidity: 100%   Direction: 250°WSW
Pressure: 29.71"   Gusts: NA
Location:  57.06°N, 6.5°W
Report Text: EGPU 230750Z 25010KT 220V280 5000 -RA BKN006 BKN017 12/12 Q1006
Loading
Personal Weather Stations






























Interactive Weather Map
Tropical Storm Tracking
New forecast layout! Learn more

10-Day Weather Forecast

Advertisements
Track Severe Weather on mobile